Time;durP1;ratioP1;P1;durP2;ratioP2;P2;SDS_P1;SDS_P2;PMS_P1;PMS_P2;Temp;Humidity;BMP_temperature;BMP_pressure;BME280_temperature;BME280_humidity;BME280_pressure;Samples;Min_cycle;Max_cycle;Signal;HPM_P1;HPM_P2
2023/01/13 00:01:57;;;;;;;2.90;0.55;;;;;;;9.70;62.97;96384.44;6217620;23;20013;-81
2023/01/13 00:04:30;;;;;;;1.52;0.60;;;;;;;9.70;62.98;96381.03;6221046;23;20021;-81
2023/01/13 00:07:01;;;;;;;2.75;0.85;;;;;;;9.68;62.94;96394.25;6216626;23;20030;-81
2023/01/13 00:09:37;;;;;;;7.32;0.65;;;;;;;9.68;62.32;96370.81;6215658;23;20052;-81
2023/01/13 00:12:13;;;;;;;1.70;0.25;;;;;;;9.71;62.73;96387.88;6217297;23;20445;-81
2023/01/13 00:14:59;;;;;;;1.25;0.25;;;;;;;9.74;63.66;96384.09;6216731;23;20036;-81
2023/01/13 00:17:29;;;;;;;1.30;0.30;;;;;;;9.74;61.60;96384.91;6217331;23;20419;-80
2023/01/13 00:20:02;;;;;;;1.13;0.52;;;;;;;9.75;63.11;96376.13;6217556;23;20483;-80
2023/01/13 00:22:35;;;;;;;3.13;0.43;;;;;;;9.74;62.39;96376.28;6217113;23;20021;-81
2023/01/13 00:25:05;;;;;;;2.50;0.30;;;;;;;9.77;61.51;96381.94;6217284;23;20016;-81
2023/01/13 00:27:36;;;;;;;0.88;0.28;;;;;;;9.79;61.30;96377.34;6217927;23;20020;-80
2023/01/13 00:30:14;;;;;;;1.30;0.32;;;;;;;9.80;61.69;96373.78;6217058;23;20449;-80
2023/01/13 00:32:44;;;;;;;0.82;0.25;;;;;;;9.79;62.38;96360.91;6217137;23;20020;-81
2023/01/13 00:35:14;;;;;;;0.80;0.43;;;;;;;9.78;61.69;96365.31;6217392;23;20017;-81
2023/01/13 00:37:46;;;;;;;2.67;0.35;;;;;;;9.80;61.82;96368.56;6217019;23;20074;-81
2023/01/13 00:40:17;;;;;;;0.25;0.20;;;;;;;9.81;61.38;96367.56;6216698;23;20028;-80
2023/01/13 00:45:39;;;;;;;1.80;0.30;;;;;;;9.85;61.96;96361.00;6216538;23;20020;-81
2023/01/13 00:48:15;;;;;;;1.75;0.25;;;;;;;9.85;62.48;96350.56;6216121;23;20024;-81
2023/01/13 00:50:48;;;;;;;0.88;0.40;;;;;;;9.84;61.98;96348.97;6216929;23;20020;-81
2023/01/13 00:53:19;;;;;;;1.00;0.32;;;;;;;9.83;61.11;96342.13;6190123;23;20017;-81
2023/01/13 00:55:59;;;;;;;0.90;0.47;;;;;;;9.84;61.11;96345.56;6216922;23;20445;-81
2023/01/13 00:58:35;;;;;;;2.65;0.40;;;;;;;9.83;61.92;96339.53;6215946;23;20020;-81
2023/01/13 01:04:43;;;;;;;0.50;0.15;;;;;;;9.86;62.85;96336.56;6216463;23;20047;-80
2023/01/13 01:07:16;;;;;;;1.38;0.55;;;;;;;9.85;61.49;96334.94;6216537;23;20020;-81
2023/01/13 01:09:48;;;;;;;2.97;0.32;;;;;;;9.87;62.64;96335.56;6216424;23;20028;-81
2023/01/13 01:12:26;;;;;;;3.17;0.60;;;;;;;9.85;62.52;96323.72;6215978;23;20374;-81
2023/01/13 01:15:02;;;;;;;2.10;0.30;;;;;;;9.82;62.49;96327.50;6216420;23;20020;-81
2023/01/13 01:17:32;;;;;;;0.63;0.30;;;;;;;9.81;62.62;96323.28;6215670;23;20300;-80
2023/01/13 01:20:12;;;;;;;0.25;0.15;;;;;;;9.81;62.80;96322.47;6216261;23;20020;-81
2023/01/13 01:22:43;;;;;;;1.60;0.30;;;;;;;9.82;63.85;96334.53;6216216;23;20352;-81
2023/01/13 01:28:08;;;;;;;0.20;0.20;;;;;;;9.82;63.12;96322.28;6216082;23;20024;-81
2023/01/13 01:30:43;;;;;;;0.68;0.40;;;;;;;9.83;63.75;96321.28;6216899;23;20024;-81
2023/01/13 01:33:18;;;;;;;2.05;0.20;;;;;;;9.83;63.94;96321.28;6216259;23;20020;-80
2023/01/13 01:35:54;;;;;;;0.73;0.30;;;;;;;9.84;62.05;96316.91;6214361;23;20020;-81
2023/01/13 01:38:29;;;;;;;0.68;0.30;;;;;;;9.87;62.77;96317.34;6215276;23;20021;-81
2023/01/13 01:41:02;;;;;;;0.83;0.40;;;;;;;9.86;63.27;96310.53;6215860;23;20021;-81
2023/01/13 01:43:58;;;;;;;0.95;0.35;;;;;;;9.88;63.13;96321.56;6216150;23;20020;-81
2023/01/13 01:46:30;;;;;;;0.28;0.20;;;;;;;9.88;63.29;96305.94;6215857;23;20027;-81
2023/01/13 01:49:15;;;;;;;0.80;0.45;;;;;;;9.88;62.68;96303.31;6216705;23;20068;-81
2023/01/13 01:51:55;;;;;;;0.22;0.22;;;;;;;9.89;62.70;96304.94;6215757;23;20012;-81
2023/01/13 01:54:35;;;;;;;2.20;0.20;;;;;;;9.89;63.94;96284.09;6216460;23;20065;-81
2023/01/13 01:57:17;;;;;;;2.13;0.20;;;;;;;9.93;62.57;96288.91;6215949;23;20023;-81
2023/01/13 01:59:49;;;;;;;0.90;0.25;;;;;;;9.93;62.35;96278.50;6215799;23;20099;-81
2023/01/13 02:02:21;;;;;;;1.40;0.20;;;;;;;9.94;62.50;96273.09;6215514;23;20013;-81
2023/01/13 02:05:00;;;;;;;0.25;0.20;;;;;;;9.95;62.69;96276.50;6216015;23;20028;-81
2023/01/13 02:07:34;;;;;;;0.50;0.10;;;;;;;9.96;63.91;96280.75;6215601;23;20078;-81
2023/01/13 02:10:09;;;;;;;1.25;0.22;;;;;;;9.96;63.37;96278.16;6189457;23;20051;-81
2023/01/13 02:12:43;;;;;;;2.17;0.32;;;;;;;9.97;61.85;96282.34;6216335;23;20409;-81
2023/01/13 02:15:16;;;;;;;1.20;0.20;;;;;;;9.98;62.96;96271.75;6215969;23;20083;-81
2023/01/13 02:17:54;;;;;;;;;;;;;;;10.02;63.17;96274.81;6216109;23;20088;-81
2023/01/13 02:20:49;;;;;;;0.57;0.10;;;;;;;10.01;63.28;96254.94;6215728;23;19970;-81
2023/01/13 02:27:22;;;;;;;0.20;0.20;;;;;;;10.04;62.67;96273.63;6215561;23;20039;-81
2023/01/13 02:33:14;;;;;;;0.60;0.20;;;;;;;10.04;62.15;96265.00;6215856;23;20355;-81
2023/01/13 02:46:03;;;;;;;2.35;0.30;;;;;;;10.03;62.09;96242.53;6214719;23;20078;-78
2023/01/13 02:48:33;;;;;;;0.77;0.40;;;;;;;10.05;62.81;96248.34;6218868;23;20028;-79
2023/01/13 02:51:06;;;;;;;1.52;0.43;;;;;;;10.04;62.13;96242.34;6241502;23;20019;-78
2023/01/13 02:53:41;;;;;;;1.02;0.30;;;;;;;10.02;62.52;96246.94;6240408;23;20023;-81
2023/01/13 02:56:12;;;;;;;2.05;0.20;;;;;;;10.03;62.04;96235.50;6221743;23;20017;-80
2023/01/13 02:58:43;;;;;;;1.98;0.32;;;;;;;10.05;63.77;96245.75;6218283;23;20441;-80
2023/01/13 03:01:12;;;;;;;1.10;0.40;;;;;;;10.05;63.63;96232.72;6216424;23;20029;-81
2023/01/13 03:03:40;;;;;;;0.20;0.10;;;;;;;10.05;63.87;96243.16;6227782;23;20085;-81
2023/01/13 03:06:24;;;;;;;1.58;0.22;;;;;;;10.06;62.42;96236.97;6237814;23;20047;-81
2023/01/13 03:09:00;;;;;;;0.93;0.20;;;;;;;10.07;64.07;96222.91;6235757;23;20074;-81
2023/01/13 03:11:33;;;;;;;2.17;0.20;;;;;;;10.08;64.52;96234.97;6216970;23;20323;-81
2023/01/13 03:14:13;;;;;;;1.33;0.35;;;;;;;10.05;62.70;96220.50;6217122;23;20044;-80
2023/01/13 03:17:10;;;;;;;1.00;0.20;;;;;;;10.06;65.07;96209.09;6216019;23;20047;-80
2023/01/13 03:19:44;;;;;;;0.65;0.30;;;;;;;10.07;64.52;96212.50;6215149;23;20092;-80
2023/01/13 03:22:23;;;;;;;1.17;0.38;;;;;;;10.07;65.69;96212.50;6215573;23;20023;-80
2023/01/13 03:25:04;;;;;;;0.50;0.30;;;;;;;10.06;62.95;96206.47;6216237;23;20028;-80
2023/01/13 03:27:48;;;;;;;2.55;0.40;;;;;;;9.98;62.58;96214.41;6215011;23;20520;-80
2023/01/13 03:30:22;;;;;;;1.05;0.30;;;;;;;9.89;62.74;96203.31;6215604;23;20024;-81
2023/01/13 03:33:01;;;;;;;0.70;0.65;;;;;;;9.88;64.30;96219.97;6215627;23;20012;-80
2023/01/13 03:35:36;;;;;;;0.57;0.30;;;;;;;9.82;63.82;96205.06;6216138;23;20020;-79
2023/01/13 03:38:09;;;;;;;1.33;0.57;;;;;;;9.76;63.77;96205.00;6214536;22;20084;-76
2023/01/13 03:40:44;;;;;;;1.85;0.50;;;;;;;9.71;63.58;96216.00;6215172;23;20369;-75
2023/01/13 03:46:07;;;;;;;2.28;0.65;;;;;;;9.61;64.55;96215.47;6216274;23;20025;-76
2023/01/13 03:48:39;;;;;;;1.20;0.30;;;;;;;9.57;64.04;96211.63;6185349;23;20057;-76
2023/01/13 03:51:13;;;;;;;2.00;0.40;;;;;;;9.55;63.49;96204.00;6185971;23;20108;-75
2023/01/13 03:53:48;;;;;;;1.55;0.47;;;;;;;9.54;64.27;96204.19;6186231;23;20100;-76
2023/01/13 03:56:19;;;;;;;2.72;1.02;;;;;;;9.52;63.13;96203.56;6186488;23;20024;-76
2023/01/13 03:58:49;;;;;;;1.40;0.50;;;;;;;9.52;63.49;96203.56;6185364;23;20108;-76
2023/01/13 04:01:21;;;;;;;2.03;0.47;;;;;;;9.51;63.02;96201.94;6186265;23;20017;-76
2023/01/13 04:03:54;;;;;;;0.47;0.30;;;;;;;9.47;64.08;96197.13;6186297;23;20025;-75
2023/01/13 04:06:30;;;;;;;2.22;0.70;;;;;;;9.48;63.92;96205.72;6186154;23;20056;-76
2023/01/13 04:09:02;;;;;;;0.80;0.32;;;;;;;9.49;64.74;96192.53;6185270;23;20021;-75
2023/01/13 04:11:35;;;;;;;3.22;0.82;;;;;;;9.52;64.77;96203.56;6186272;23;20028;-75
2023/01/13 04:14:03;;;;;;;;;;;;;;;9.54;64.42;96202.38;6186526;23;20017;-76
2023/01/13 04:16:31;;;;;;;3.15;0.28;;;;;;;9.53;64.92;96189.53;6185880;23;19916;-76
2023/01/13 04:19:00;;;;;;;1.45;0.43;;;;;;;9.51;64.32;96199.34;6185108;23;20049;-75
2023/01/13 04:21:28;;;;;;;1.58;0.30;;;;;;;9.49;64.47;96199.53;6186061;23;20031;-76
2023/01/13 04:23:56;;;;;;;1.90;0.68;;;;;;;9.48;65.30;96195.31;6185606;23;20466;-76
2023/01/13 04:26:23;;;;;;;1.65;0.70;;;;;;;9.46;64.96;96190.28;6186117;23;20027;-77
2023/01/13 04:28:53;;;;;;;1.73;0.73;;;;;;;9.46;64.83;96194.69;6186569;23;20361;-76
2023/01/13 04:31:21;;;;;;;3.65;0.90;;;;;;;9.44;64.47;96189.66;6187116;23;20025;-76
2023/01/13 04:33:48;;;;;;;1.33;0.95;;;;;;;9.41;64.44;96199.66;6186728;23;20021;-75
2023/01/13 04:36:18;;;;;;;1.85;0.82;;;;;;;9.42;66.02;96191.66;6185809;23;20025;-76
2023/01/13 04:38:46;;;;;;;1.58;0.98;;;;;;;9.43;66.52;96195.88;6185228;23;20393;-76
2023/01/13 04:41:13;;;;;;;1.40;0.80;;;;;;;9.42;66.69;96190.84;6186003;23;20096;-76
2023/01/13 04:43:40;;;;;;;1.25;0.80;;;;;;;9.39;65.21;96194.63;6185598;23;20025;-76
2023/01/13 04:46:08;;;;;;;2.80;1.05;;;;;;;9.37;65.91;96185.38;6186304;23;20021;-76
2023/01/13 04:48:36;;;;;;;2.53;0.68;;;;;;;9.35;65.75;96195.97;6186660;23;20021;-76
2023/01/13 04:51:03;;;;;;;1.23;0.50;;;;;;;9.35;66.79;96193.38;6188683;23;20025;-76
2023/01/13 04:53:32;;;;;;;1.85;0.63;;;;;;;9.35;65.77;96182.16;6187440;23;20017;-76
2023/01/13 04:56:00;;;;;;;1.73;0.70;;;;;;;9.34;65.70;96185.75;6186120;23;20021;-76
2023/01/13 04:58:27;;;;;;;1.92;0.65;;;;;;;9.32;65.26;96177.34;6184370;23;20025;-76
2023/01/13 05:00:55;;;;;;;2.10;0.88;;;;;;;9.32;64.77;96185.94;6185491;23;20393;-76
2023/01/13 05:03:25;;;;;;;2.25;0.88;;;;;;;9.34;65.88;96181.34;6185849;23;20040;-76
2023/01/13 05:05:53;;;;;;;2.45;1.15;;;;;;;9.37;65.30;96180.19;6185724;23;20025;-76
2023/01/13 05:08:20;;;;;;;4.90;1.00;;;;;;;9.39;66.69;96173.00;6184434;23;20021;-76
2023/01/13 05:10:49;;;;;;;1.90;0.98;;;;;;;9.40;67.57;96179.81;6185779;23;20020;-76
2023/01/13 05:18:43;;;;;;;3.15;1.25;;;;;;;9.42;66.80;96183.84;6183074;23;20028;-76
2023/01/13 05:25:20;;;;;;;2.78;1.10;;;;;;;9.43;66.92;96169.84;6185380;23;20096;-76
2023/01/13 05:26:48;;;;;;;1.27;0.55;;;;;;;9.36;65.59;96179.38;6184999;23;20024;-75
2023/01/13 05:29:15;;;;;;;1.90;0.82;;;;;;;9.35;65.68;96172.53;6184440;23;20025;-76
2023/01/13 05:31:43;;;;;;;1.45;0.90;;;;;;;9.34;65.41;96170.94;6185094;23;20021;-76
2023/01/13 05:34:10;;;;;;;4.00;0.90;;;;;;;9.33;65.01;96179.72;6185553;23;20096;-76
2023/01/13 05:36:38;;;;;;;1.90;0.82;;;;;;;9.30;64.74;96182.72;6185229;23;20022;-75
2023/01/13 05:39:05;;;;;;;1.23;0.50;;;;;;;9.29;65.80;96173.28;6184498;23;20021;-75
2023/01/13 05:44:19;;;;;;;1.95;0.70;;;;;;;9.26;66.13;96168.44;6185284;23;20021;-76
2023/01/13 05:46:46;;;;;;;4.18;1.38;;;;;;;9.26;66.38;96176.25;6184731;23;20096;-75
2023/01/13 05:49:14;;;;;;;3.30;1.80;;;;;;;9.23;66.93;96182.63;6184646;23;20033;-76
2023/01/13 05:51:41;;;;;;;2.55;0.60;;;;;;;9.25;66.27;96174.66;6185035;23;20028;-75
2023/01/13 05:54:09;;;;;;;2.60;0.60;;;;;;;9.27;66.42;96183.06;6185190;23;20147;-77
2023/01/13 05:56:36;;;;;;;1.55;0.43;;;;;;;9.27;66.83;96176.09;6184162;23;20502;-76
2023/01/13 05:59:04;;;;;;;2.40;0.50;;;;;;;9.29;67.30;96178.47;6183698;23;20028;-76
2023/01/13 06:01:32;;;;;;;2.53;0.55;;;;;;;9.28;65.79;96187.28;6183762;23;20021;-75
2023/01/13 06:04:00;;;;;;;2.95;0.80;;;;;;;9.26;65.49;96187.47;6183882;23;20028;-75
2023/01/13 06:06:28;;;;;;;2.45;0.77;;;;;;;9.26;66.95;96184.06;6183871;23;20031;-75
2023/01/13 06:08:55;;;;;;;2.03;0.90;;;;;;;9.28;67.84;96171.69;6183680;23;20021;-75
2023/01/13 06:11:23;;;;;;;1.00;0.90;;;;;;;9.30;66.21;96172.31;6184646;23;20028;-75
2023/01/13 06:13:50;;;;;;;1.77;0.82;;;;;;;9.29;65.78;96168.06;6184342;23;20353;-75
2023/01/13 06:16:18;;;;;;;1.42;0.98;;;;;;;9.28;66.12;96172.47;6185521;23;20020;-76
2023/01/13 06:18:47;;;;;;;1.10;0.77;;;;;;;9.28;66.13;96175.06;6182477;23;20025;-75
2023/01/13 06:21:14;;;;;;;0.65;0.45;;;;;;;9.30;66.79;96164.50;6184169;23;20032;-76
2023/01/13 06:23:42;;;;;;;2.60;0.75;;;;;;;9.30;67.14;96161.88;6184028;23;20028;-76
2023/01/13 06:26:14;;;;;;;0.52;0.32;;;;;;;9.32;65.69;96161.72;6184359;23;20084;-75
2023/01/13 06:28:41;;;;;;;1.77;0.40;;;;;;;9.34;66.01;96160.53;6183119;23;20017;-76
2023/01/13 06:31:10;;;;;;;0.50;0.20;;;;;;;9.35;66.87;96154.31;6184651;23;20031;-75
2023/01/13 06:33:42;;;;;;;0.50;0.20;;;;;;;9.35;65.42;96154.31;6184059;23;20099;-76
2023/01/13 06:36:16;;;;;;;1.65;0.43;;;;;;;9.35;65.20;96156.13;6183564;23;20107;-77
2023/01/13 06:38:49;;;;;;;0.75;0.30;;;;;;;9.34;65.38;96155.34;6183717;23;20017;-76
2023/01/13 06:43:13;;;;;;;0.32;0.32;;;;;;;9.36;66.97;96157.72;6184653;23;20045;-76
2023/01/13 06:44:04;;;;;;;0.30;0.25;;;;;;;9.38;66.47;96153.97;6184204;23;20021;-76
2023/01/13 06:46:33;;;;;;;1.23;0.35;;;;;;;9.39;65.73;96152.97;6183981;23;20469;-76
2023/01/13 06:49:01;;;;;;;2.00;0.60;;;;;;;9.42;66.08;96157.00;6183373;23;20079;-76
2023/01/13 06:51:29;;;;;;;0.60;0.38;;;;;;;9.42;65.91;96163.03;6184101;23;20100;-76
2023/01/13 06:53:57;;;;;;;0.98;0.52;;;;;;;9.45;66.88;96157.44;6183906;23;20461;-76
2023/01/13 06:56:24;;;;;;;0.73;0.63;;;;;;;9.43;65.42;96164.63;6184495;23;20023;-76
2023/01/13 06:58:52;;;;;;;0.65;0.20;;;;;;;9.45;66.49;96167.06;6183364;23;20017;-76
2023/01/13 07:01:19;;;;;;;0.60;0.47;;;;;;;9.45;66.59;96172.25;6184871;23;20029;-76
2023/01/13 07:03:47;;;;;;;2.35;0.30;;;;;;;9.43;65.27;96169.84;6184003;23;20017;-75
2023/01/13 07:06:15;;;;;;;1.52;0.60;;;;;;;9.38;65.21;96167.00;6184387;23;20028;-76
2023/01/13 07:08:43;;;;;;;1.20;0.40;;;;;;;9.39;66.00;96167.78;6183796;23;20025;-76
2023/01/13 07:11:11;;;;;;;0.20;0.20;;;;;;;9.38;65.34;96172.19;6184561;23;20021;-76
2023/01/13 07:16:26;;;;;;;0.40;0.30;;;;;;;9.33;66.06;96177.13;6186291;23;20021;-76
2023/01/13 07:18:54;;;;;;;1.30;0.50;;;;;;;9.34;65.25;96180.56;6185548;23;20021;-76
2023/01/13 07:21:22;;;;;;;2.83;0.32;;;;;;;9.32;65.41;96172.94;6186402;23;20017;-75
2023/01/13 07:23:50;;;;;;;1.45;0.30;;;;;;;9.33;65.30;96174.53;6186318;23;20021;-76
2023/01/13 07:26:18;;;;;;;2.45;0.43;;;;;;;9.34;65.05;96170.94;6186284;23;20021;-76
2023/01/13 07:28:46;;;;;;;2.05;0.30;;;;;;;9.35;64.96;96175.16;6184903;23;20032;-75
2023/01/13 07:31:15;;;;;;;3.50;0.77;;;;;;;9.35;66.00;96167.34;6186592;23;20021;-76
2023/01/13 07:33:43;;;;;;;0.88;0.50;;;;;;;9.34;66.55;96170.16;6188285;23;20032;-76
2023/01/13 07:36:11;;;;;;;0.38;0.22;;;;;;;9.31;65.20;96175.69;6193869;23;20029;-76
2023/01/13 07:38:39;;;;;;;1.60;0.22;;;;;;;9.31;65.08;96183.50;6189259;23;20021;-76
2023/01/13 07:43:57;;;;;;;1.42;0.30;;;;;;;9.26;65.17;96176.25;6186668;23;20021;-76
2023/01/13 07:46:24;;;;;;;0.70;0.30;;;;;;;9.23;64.96;96187.03;6186056;23;20024;-76
2023/01/13 07:48:52;;;;;;;0.57;0.30;;;;;;;9.20;65.66;96176.97;6185228;23;20028;-76
2023/01/13 07:51:19;;;;;;;0.68;0.22;;;;;;;9.18;66.03;96179.78;6186496;23;20035;-76
2023/01/13 07:53:47;;;;;;;1.80;0.30;;;;;;;9.16;65.88;96189.56;6186025;23;20025;-76
2023/01/13 07:56:16;;;;;;;0.75;0.17;;;;;;;9.15;66.53;96189.75;6186225;23;20024;-76
2023/01/13 07:58:49;;;;;;;0.63;0.10;;;;;;;9.14;66.57;96182.91;6184933;23;20492;-76
2023/01/13 08:01:18;;;;;;;0.55;0.40;;;;;;;9.15;67.31;96174.13;6186234;23;20025;-76
2023/01/13 08:03:45;;;;;;;0.20;0.20;;;;;;;9.13;66.81;96178.72;6185839;23;20025;-76
2023/01/13 08:06:13;;;;;;;0.45;0.30;;;;;;;9.15;67.54;96171.53;6185654;23;20013;-76
2023/01/13 08:08:41;;;;;;;0.20;0.20;;;;;;;9.16;67.79;96165.31;6185199;23;20024;-76
2023/01/13 08:11:08;;;;;;;0.57;0.20;;;;;;;9.15;67.23;96180.13;6185865;23;20056;-76
2023/01/13 08:13:37;;;;;;;0.95;0.35;;;;;;;9.15;67.73;96171.53;6186139;23;20027;-76
2023/01/13 08:16:07;;;;;;;0.68;0.20;;;;;;;9.17;68.49;96182.56;6186024;23;20028;-75
2023/01/13 08:18:36;;;;;;;0.68;0.10;;;;;;;9.15;67.91;96187.94;6185384;23;20029;-76
2023/01/13 08:21:06;;;;;;;0.68;0.32;;;;;;;9.14;67.46;96182.91;6185917;23;20362;-76
2023/01/13 08:23:34;;;;;;;2.08;0.35;;;;;;;9.13;67.88;96191.72;6185951;23;20032;-76
2023/01/13 08:26:02;;;;;;;0.43;0.22;;;;;;;9.12;67.62;96198.72;6185664;23;20067;-76
2023/01/13 08:28:30;;;;;;;2.15;0.35;;;;;;;9.13;68.15;96202.13;6185165;23;20021;-76
2023/01/13 08:31:04;;;;;;;0.80;0.13;;;;;;;9.14;68.89;96201.97;6185385;23;20357;-76
2023/01/13 08:33:32;;;;;;;1.40;0.28;;;;;;;9.17;68.49;96193.78;6185981;23;20029;-76
2023/01/13 08:36:03;;;;;;;0.95;0.25;;;;;;;9.22;68.09;96199.22;6185839;23;20021;-76
2023/01/13 08:38:31;;;;;;;0.30;0.30;;;;;;;9.22;67.76;96191.41;6185105;23;20496;-76
2023/01/13 08:40:59;;;;;;;0.47;0.40;;;;;;;9.26;67.02;96184.06;6186605;23;20021;-76
2023/01/13 08:43:26;;;;;;;0.10;0.10;;;;;;;9.28;67.02;96189.91;6186460;23;20025;-76
2023/01/13 08:45:56;;;;;;;0.47;0.20;;;;;;;9.29;67.51;96194.09;6185780;23;20334;-76
2023/01/13 08:48:26;;;;;;;0.40;0.20;;;;;;;9.32;67.14;96193.75;6185045;23;20104;-76
2023/01/13 08:51:02;;;;;;;0.75;0.30;;;;;;;9.35;67.14;96197.78;6185763;23;20021;-76
2023/01/13 08:53:29;;;;;;;0.75;0.10;;;;;;;9.36;67.10;96197.59;6185821;23;20096;-75
2023/01/13 08:55:57;;;;;;;1.02;0.40;;;;;;;9.40;67.74;96211.03;6185677;23;20028;-76
2023/01/13 08:58:24;;;;;;;0.50;0.20;;;;;;;9.40;66.90;96209.25;6185984;23;20032;-76
2023/01/13 09:00:55;;;;;;;0.30;0.30;;;;;;;9.42;66.94;96209.88;6185901;23;20029;-76
2023/01/13 09:03:22;;;;;;;0.38;0.30;;;;;;;9.44;66.83;96218.28;6186087;23;20032;-76
2023/01/13 09:05:51;;;;;;;1.80;0.20;;;;;;;9.46;66.66;96226.72;6185458;23;20340;-76
2023/01/13 09:08:19;;;;;;;0.28;0.10;;;;;;;9.47;66.68;96223.16;6184286;23;20021;-76
2023/01/13 09:10:46;;;;;;;1.95;0.20;;;;;;;9.51;66.88;96213.19;6185668;23;20021;-76
2023/01/13 09:13:14;;;;;;;0.40;0.30;;;;;;;9.56;67.12;96225.66;6185265;23;20025;-76
2023/01/13 09:15:44;;;;;;;2.83;0.68;;;;;;;9.59;67.79;96225.28;6185156;23;20027;-77
2023/01/13 09:18:12;;;;;;;2.88;0.35;;;;;;;9.61;67.00;96225.91;6184258;23;20477;-76
2023/01/13 09:20:40;;;;;;;0.30;0.20;;;;;;;9.63;66.91;96234.31;6185195;23;20027;-76
2023/01/13 09:23:09;;;;;;;0.60;0.50;;;;;;;9.66;68.37;96242.59;6184740;23;20536;-76
2023/01/13 09:25:38;;;;;;;0.70;0.20;;;;;;;9.73;69.01;96252.25;6185130;23;20029;-76
2023/01/13 09:28:07;;;;;;;2.63;1.65;;;;;;;9.77;69.47;96259.50;6183992;23;20031;-76
2023/01/13 09:30:36;;;;;;;0.90;0.80;;;;;;;9.79;69.53;96280.97;6184653;23;20021;-75
2023/01/13 09:35:48;;;;;;;0.70;0.10;;;;;;;9.78;70.10;96281.97;6185011;23;20023;-76
2023/01/13 09:38:17;;;;;;;0.20;0.10;;;;;;;9.75;70.64;96286.72;6218914;23;20048;-77
2023/01/13 09:40:48;;;;;;;0.35;0.10;;;;;;;9.72;71.18;96295.72;6228422;23;20021;-76
2023/01/13 09:46:42;;;;;;;1.38;0.20;;;;;;;9.68;70.62;96278.84;6217426;23;20024;-76
2023/01/13 09:49:02;;;;;;;0.75;0.10;;;;;;;9.67;70.38;96283.25;6185583;23;20405;-77
2023/01/13 09:51:33;;;;;;;0.70;0.35;;;;;;;9.67;70.55;96290.28;6186859;23;20031;-78
2023/01/13 09:54:11;;;;;;;1.50;0.75;;;;;;;9.66;70.71;96288.63;6186528;23;20016;-76
2023/01/13 09:56:38;;;;;;;0.60;0.20;;;;;;;9.63;70.61;96302.03;6186618;23;20033;-79
2023/01/13 09:59:08;;;;;;;0.10;0.10;;;;;;;9.58;70.57;96307.00;6185709;23;20075;-76
2023/01/13 10:01:42;;;;;;;0.38;0.38;;;;;;;9.51;71.61;96329.53;6186704;23;20021;-77
2023/01/13 10:04:12;;;;;;;0.43;0.38;;;;;;;9.31;70.94;96331.88;6186780;23;20431;-76
2023/01/13 10:06:42;;;;;;;0.63;0.10;;;;;;;9.11;71.43;96347.22;6186596;23;20021;-78
2023/01/13 10:09:14;;;;;;;3.03;0.73;;;;;;;8.96;72.65;96349.78;6185628;23;20100;-76
2023/01/13 10:14:37;;;;;;;0.82;0.40;;;;;;;8.77;71.99;96336.31;6186568;23;20072;-76
2023/01/13 10:17:11;;;;;;;0.70;0.50;;;;;;;8.70;72.74;96345.00;6186930;23;20099;-78
2023/01/13 10:19:44;;;;;;;1.00;0.77;;;;;;;8.66;73.21;96342.75;6186383;23;20241;-77
2023/01/13 10:22:25;;;;;;;1.45;0.80;;;;;;;8.71;73.78;96344.03;6187082;23;20025;-77
2023/01/13 10:25:04;;;;;;;0.95;0.73;;;;;;;8.71;73.68;96341.44;6187115;23;20045;-79
2023/01/13 10:27:34;;;;;;;0.43;0.28;;;;;;;8.71;73.11;96344.84;6187444;23;20520;-79
2023/01/13 10:30:17;;;;;;;0.65;0.10;;;;;;;8.71;72.77;96346.63;6187237;23;20100;-78
2023/01/13 10:32:50;;;;;;;0.65;0.30;;;;;;;8.72;72.85;96348.22;6186636;23;20049;-77
2023/01/13 10:35:17;;;;;;;1.58;0.80;;;;;;;8.74;72.87;96341.06;6187420;23;20024;-76
2023/01/13 10:37:56;;;;;;;0.80;0.30;;;;;;;8.76;73.13;96344.31;6186211;23;20017;-77
2023/01/13 10:40:25;;;;;;;1.98;0.30;;;;;;;8.76;73.40;96339.09;6187822;23;20058;-78
2023/01/13 10:43:05;;;;;;;2.45;0.17;;;;;;;8.77;73.43;96353.72;6187192;23;20035;-77
2023/01/13 10:45:33;;;;;;;0.25;0.20;;;;;;;8.78;72.96;96344.94;6187628;23;20025;-78
2023/01/13 10:48:07;;;;;;;2.65;0.20;;;;;;;8.81;72.18;96357.56;6186851;23;20349;-77
2023/01/13 10:50:36;;;;;;;3.25;0.85;;;;;;;8.80;71.73;96355.97;6188776;23;20412;-75
2023/01/13 10:53:18;;;;;;;1.52;0.57;;;;;;;8.75;72.39;96356.50;6187973;23;20021;-78
2023/01/13 10:56:00;;;;;;;1.60;0.50;;;;;;;8.76;72.45;96339.09;6188137;23;20304;-76
2023/01/13 10:58:28;;;;;;;1.25;0.50;;;;;;;8.76;72.28;96349.50;6186494;23;20461;-75
2023/01/13 11:01:00;;;;;;;6.18;2.10;;;;;;;8.74;72.43;96356.66;6187573;23;20100;-78
2023/01/13 11:03:39;;;;;;;0.60;0.47;;;;;;;8.69;71.62;96353.78;6188110;23;20076;-77
2023/01/13 11:06:08;;;;;;;2.42;0.63;;;;;;;8.65;71.65;96353.31;6187637;23;20481;-76
2023/01/13 11:08:44;;;;;;;0.30;0.20;;;;;;;8.65;73.07;96356.72;6186642;23;20021;-76
2023/01/13 11:11:41;;;;;;;1.05;0.35;;;;;;;8.65;72.15;96359.31;6187863;23;20449;-76
2023/01/13 11:17:14;;;;;;;0.70;0.32;;;;;;;8.55;71.90;96356.19;6187861;23;20024;-76
2023/01/13 11:19:48;;;;;;;1.13;0.25;;;;;;;8.54;72.71;96346.75;6187600;23;20044;-77
2023/01/13 11:22:20;;;;;;;0.75;0.30;;;;;;;8.53;72.45;96350.34;6188361;23;20021;-76
2023/01/13 11:24:53;;;;;;;0.57;0.20;;;;;;;8.53;72.52;96347.75;6187269;23;20021;-77
2023/01/13 11:27:24;;;;;;;;;;;;;;;8.57;73.20;96346.41;6187854;23;20021;-78
2023/01/13 11:30:01;;;;;;;2.50;0.40;;;;;;;8.61;72.97;96346.84;6186857;23;19916;-77
2023/01/13 11:32:34;;;;;;;1.38;0.30;;;;;;;8.60;72.31;96346.06;6188416;23;20055;-76
2023/01/13 11:35:10;;;;;;;0.80;0.50;;;;;;;8.57;72.32;96341.22;6188288;23;20017;-76
2023/01/13 11:37:41;;;;;;;2.85;0.70;;;;;;;8.61;73.06;96345.06;6187497;23;20024;-75
2023/01/13 11:40:16;;;;;;;0.50;0.20;;;;;;;8.64;73.12;96349.94;6187973;23;20027;-77
2023/01/13 11:42:53;;;;;;;2.20;0.77;;;;;;;8.63;73.51;96353.50;6187550;23;20021;-76
2023/01/13 11:45:29;;;;;;;1.55;0.80;;;;;;;8.64;73.73;96357.72;6188289;23;20048;-77
2023/01/13 11:48:01;;;;;;;2.45;0.88;;;;;;;8.66;72.67;96367.97;6186620;23;20399;-78
2023/01/13 11:50:34;;;;;;;1.52;0.80;;;;;;;8.64;72.59;96362.13;6187207;23;20092;-76
2023/01/13 11:53:15;;;;;;;2.08;0.95;;;;;;;8.61;74.49;96365.84;6188107;23;20397;-76
2023/01/13 11:55:54;;;;;;;2.05;0.82;;;;;;;8.62;73.04;96372.69;6187748;23;20031;-77
2023/01/13 11:58:55;;;;;;;3.40;0.45;;;;;;;8.59;72.10;96370.44;6186770;23;20021;-77
2023/01/13 12:01:34;;;;;;;1.17;0.50;;;;;;;8.55;72.39;96369.19;6187093;23;20021;-77
2023/01/13 12:04:20;;;;;;;3.40;1.08;;;;;;;8.49;71.89;96371.66;6187785;23;20024;-76
2023/01/13 12:06:54;;;;;;;1.75;0.45;;;;;;;8.44;72.35;96373.00;6188121;23;20145;-76
2023/01/13 12:09:32;;;;;;;3.47;0.70;;;;;;;8.45;72.26;96384.19;6186561;23;20025;-78
2023/01/13 12:12:21;;;;;;;1.50;0.50;;;;;;;8.45;72.49;96385.00;6187243;23;20095;-76
2023/01/13 12:15:15;;;;;;;1.05;0.55;;;;;;;8.43;71.48;96376.56;6189249;23;20032;-78
2023/01/13 12:17:51;;;;;;;2.08;0.47;;;;;;;8.43;72.62;96379.16;6187283;23;20021;-75
2023/01/13 12:20:30;;;;;;;1.83;0.60;;;;;;;8.45;71.86;96379.78;6187120;23;20040;-76
2023/01/13 12:23:02;;;;;;;1.55;0.30;;;;;;;8.40;71.11;96391.69;6188255;23;20024;-78
2023/01/13 12:25:35;;;;;;;2.38;0.50;;;;;;;8.39;71.10;96388.25;6187728;23;20096;-79
2023/01/13 12:28:07;;;;;;;1.77;0.40;;;;;;;8.39;71.04;96370.06;6186705;23;20055;-76
2023/01/13 12:30:41;;;;;;;1.25;0.43;;;;;;;8.36;70.56;96378.22;6187069;23;20357;-77
2023/01/13 12:33:20;;;;;;;5.28;0.63;;;;;;;8.35;69.96;96378.38;6187003;23;20509;-76
2023/01/13 12:35:55;;;;;;;3.42;0.80;;;;;;;8.33;71.39;96370.78;6187549;23;20334;-76
2023/01/13 12:38:34;;;;;;;2.22;0.60;;;;;;;8.37;71.76;96366.03;6184908;23;20099;-75
2023/01/13 12:41:12;;;;;;;2.20;1.00;;;;;;;8.39;71.22;96384.84;6186354;23;20100;-75
2023/01/13 12:46:45;;;;;;;2.30;0.55;;;;;;;8.34;71.99;96387.16;6186560;23;20028;-76
2023/01/13 12:49:21;;;;;;;0.47;0.30;;;;;;;8.32;71.89;96368.34;6185806;23;20025;-77
2023/01/13 12:52:09;;;;;;;6.00;0.93;;;;;;;8.33;71.90;96381.16;6188484;23;20096;-78
2023/01/13 12:55:03;;;;;;;2.13;0.60;;;;;;;8.37;73.33;96381.63;6204560;23;20021;-76
2023/01/13 12:57:33;;;;;;;5.20;1.60;;;;;;;8.43;71.46;96386.16;6197918;23;20071;-78
2023/01/13 13:00:16;;;;;;;3.42;0.82;;;;;;;8.47;70.94;96376.22;6186426;23;20374;-78
2023/01/13 13:03:19;;;;;;;3.70;0.60;;;;;;;8.50;70.19;96371.47;6186320;23;20025;-75
2023/01/13 13:05:58;;;;;;;4.22;0.60;;;;;;;8.57;71.34;96377.63;6186581;23;20025;-76
2023/01/13 13:08:44;;;;;;;1.48;0.65;;;;;;;8.64;70.25;96388.13;6185094;23;20096;-75